ADL weather

Adelaide International Airport
Adelaide, South Australia, Australia

Public forecast

Using degrees Celsius for public forecast. Weather courtesy of forecast.io.

METAR (pilot weather report)

Retrieved 2018/11/14 15:30 UTC (1 minute ago):

YPAD 141530Z 19005KT CAVOK 13/08 Q1022 NOSIG

TAF (pilot weather forecast)

Retrieved 2018/11/14 12:00 UTC (4 hours ago):

TAF YPAD 141112Z 1412/1518 15008KT 9999 SCT020 FM150100 20014KT CAVOK FM150800 14010KT CAVOK